Decoded Metar for PADL (DILLINGHAM in AK, USA) (IATA:DLG) | Meteo·Mobile Aviation Weather
aviador You're here:

PADL Decoded Metar

DILLINGHAM in AK, USA
Report Time2018-09-21 09:56:00
UTC Time2018-09-21 10:06:21
Flight Rules vfr VFR
WindCalm
Visibility9999 m
Phenomena:N/A
Clouds:N/A
Expected CloudBase > 400 ft AGL from Temp-Dew spread
CeilingNone
Temp08°C (ISA -7)
Dew Point07°C (93% RH)
AAT7.3°C
QNH1019 hPa
Density Alt-804 ft
Elevation85 ft
Report Wrong Elevation
Raw Report
PADL 210956Z AUTO 00000KT 10SM CLR 08/07 A3009 RMK AO2 RAB45E55
SLP195 T00830067 PNO $=

Extra information for PADL:More info

Metar Taf Metar & Taf Last 4 Metars F.Rules Stats Wind Profile Meteogram Temp Stats Airport Information Weather charts Add Link Nearby VenuesMetar ALERT Operation Metar Decoded Social comments

AIRNAV info for PADL